createdAt,value
2018-08-28T00:00:18.833Z,72.20
2018-08-28T00:01:24.915Z,72.30
2018-08-28T00:02:30.108Z,72.40
2018-08-28T00:03:33.488Z,72.40
2018-08-28T00:04:36.877Z,72.40
2018-08-28T00:05:41.193Z,72.50
2018-08-28T00:06:44.641Z,72.60
2018-08-28T00:07:48.026Z,73.30
2018-08-28T00:08:51.860Z,72.70
2018-08-28T00:09:55.241Z,72.70
2018-08-28T00:11:00.349Z,72.80
2018-08-28T00:12:03.893Z,72.90
2018-08-28T00:13:07.542Z,73.00
2018-08-28T00:14:10.972Z,73.10
2018-08-28T00:15:15.448Z,73.30
2018-08-28T00:16:19.907Z,73.30
2018-08-28T00:17:23.916Z,73.50
2018-08-28T00:18:27.271Z,73.60
2018-08-28T00:19:30.694Z,73.70
2018-08-28T00:20:35.203Z,73.80
2018-08-28T00:21:38.627Z,74.00
2018-08-28T00:22:42.052Z,74.00
2018-08-28T00:23:45.444Z,74.10
2018-08-28T00:24:48.852Z,74.30
2018-08-28T00:25:53.453Z,74.40
2018-08-28T00:26:56.864Z,75.10
2018-08-28T00:28:00.269Z,74.50
2018-08-28T00:29:03.658Z,74.60
2018-08-28T00:30:09.166Z,74.80
2018-08-28T00:31:13.689Z,74.90
2018-08-28T00:32:17.159Z,75.00
2018-08-28T00:33:20.556Z,75.10
2018-08-28T00:34:24.014Z,75.10
2018-08-28T00:35:28.407Z,75.30
2018-08-28T00:36:31.798Z,75.40
2018-08-28T00:37:35.240Z,75.50
2018-08-28T00:38:38.652Z,76.40
2018-08-28T00:39:42.058Z,75.90
2018-08-28T00:40:46.563Z,75.80
2018-08-28T00:41:49.968Z,76.60
2018-08-28T00:42:53.353Z,76.10
2018-08-28T00:43:56.769Z,76.20
2018-08-28T00:45:00.155Z,76.30
2018-08-28T00:46:05.428Z,76.50
2018-08-28T00:47:09.008Z,76.50
2018-08-28T00:48:12.405Z,76.70
2018-08-28T00:49:15.826Z,76.80
2018-08-28T00:50:21.073Z,76.90
2018-08-28T00:51:25.231Z,77.10
2018-08-28T00:52:28.752Z,77.10
2018-08-28T00:53:32.056Z,77.20
2018-08-28T00:54:35.464Z,77.30
2018-08-28T00:55:39.947Z,77.40
2018-08-28T00:56:43.342Z,77.50
2018-08-28T00:57:46.848Z,77.70
2018-08-28T00:58:50.236Z,77.80
2018-08-28T00:59:53.631Z,77.90
2018-08-28T01:00:58.565Z,77.90
2018-08-28T01:02:01.980Z,78.20
2018-08-28T01:03:05.531Z,78.30
2018-08-28T01:04:08.913Z,78.40
2018-08-28T01:05:13.824Z,78.60
2018-08-28T01:06:18.760Z,78.80
2018-08-28T01:07:22.208Z,78.80
2018-08-28T01:08:25.601Z,79.20
2018-08-28T01:09:28.981Z,79.10
2018-08-28T01:10:33.476Z,79.20
2018-08-28T01:11:36.863Z,79.30
2018-08-28T01:12:40.249Z,79.30
2018-08-28T01:13:43.639Z,79.50
2018-08-28T01:14:47.117Z,79.60
2018-08-28T01:15:51.507Z,79.70
2018-08-28T01:16:54.907Z,79.80
2018-08-28T01:17:58.289Z,79.90
2018-08-28T01:19:01.692Z,80.00
2018-08-28T01:20:06.674Z,80.00
2018-08-28T01:21:12.164Z,80.10
2018-08-28T01:22:15.564Z,80.20
2018-08-28T01:23:18.943Z,80.20
2018-08-28T01:24:22.328Z,80.30
2018-08-28T01:25:26.650Z,80.30
2018-08-28T01:26:30.248Z,80.40
2018-08-28T01:27:33.632Z,80.40
2018-08-28T01:28:37.194Z,80.50
2018-08-28T01:29:40.568Z,80.50
2018-08-28T01:30:45.040Z,80.60
2018-08-28T01:31:48.504Z,80.60
2018-08-28T01:32:51.904Z,80.70
2018-08-28T01:33:55.285Z,80.70
2018-08-28T01:34:58.661Z,80.80
2018-08-28T01:36:03.185Z,80.90
2018-08-28T01:37:06.693Z,80.90
2018-08-28T01:38:10.084Z,80.50
2018-08-28T01:39:13.463Z,81.10
2018-08-28T01:40:17.881Z,81.20
2018-08-28T01:41:22.310Z,81.40
2018-08-28T01:42:25.975Z,81.60
2018-08-28T01:43:32.109Z,81.80
2018-08-28T01:44:35.558Z,81.90
2018-08-28T01:45:39.912Z,81.80
2018-08-28T01:46:43.381Z,82.00
2018-08-28T01:47:46.775Z,82.10
2018-08-28T01:48:50.151Z,82.10
2018-08-28T01:49:53.524Z,82.20
2018-08-28T01:50:57.977Z,82.20
2018-08-28T01:52:01.372Z,82.90
2018-08-28T01:53:04.846Z,82.40
2018-08-28T01:54:08.237Z,82.40
2018-08-28T01:55:12.650Z,82.50
2018-08-28T01:56:17.888Z,82.50
2018-08-28T01:57:21.284Z,82.70
2018-08-28T01:58:24.684Z,82.70
2018-08-28T01:59:28.072Z,82.70
2018-08-28T02:00:33.550Z,82.70
2018-08-28T02:01:36.960Z,82.70
2018-08-28T02:02:40.350Z,82.70
2018-08-28T02:03:43.755Z,82.80
2018-08-28T02:04:47.141Z,83.50
2018-08-28T02:05:51.442Z,83.10
2018-08-28T02:06:54.845Z,83.10
2018-08-28T02:07:58.270Z,83.20
2018-08-28T02:09:01.688Z,83.20
2018-08-28T02:10:07.231Z,83.20
2018-08-28T02:11:11.682Z,83.20
2018-08-28T02:12:15.132Z,83.30
2018-08-28T02:13:18.752Z,83.30
2018-08-28T02:14:22.060Z,83.40
2018-08-28T02:15:26.524Z,83.40
2018-08-28T02:16:30.152Z,83.40
2018-08-28T02:17:33.548Z,83.40
2018-08-28T02:18:36.932Z,83.50
2018-08-28T02:19:40.401Z,83.50
2018-08-28T02:20:44.924Z,83.60
2018-08-28T02:21:48.377Z,83.60
2018-08-28T02:22:51.755Z,83.70
2018-08-28T02:23:55.136Z,83.80
2018-08-28T02:24:58.540Z,83.80
2018-08-28T02:26:03.096Z,83.80
2018-08-28T02:27:06.776Z,83.80
2018-08-28T02:28:10.152Z,84.00
2018-08-28T02:29:13.540Z,83.80
2018-08-28T02:30:18.147Z,83.90
2018-08-28T02:31:23.262Z,84.00
2018-08-28T02:32:26.689Z,84.00
2018-08-28T02:33:30.149Z,84.10
2018-08-28T02:34:33.521Z,84.10
2018-08-28T02:35:37.967Z,84.30
2018-08-28T02:36:41.363Z,84.30
2018-08-28T02:37:44.776Z,84.30
2018-08-28T02:38:48.147Z,84.40
2018-08-28T02:39:51.528Z,84.50
2018-08-28T02:40:56.075Z,84.70
2018-08-28T02:41:59.504Z,84.70
2018-08-28T02:43:02.906Z,84.90
2018-08-28T02:44:06.296Z,85.00
2018-08-28T02:45:11.565Z,85.10
2018-08-28T02:46:16.097Z,85.10
2018-08-28T02:47:19.487Z,85.10
2018-08-28T02:48:22.874Z,85.20
2018-08-28T02:49:26.252Z,85.20
2018-08-28T02:50:30.812Z,85.20
2018-08-28T02:51:34.592Z,85.30
2018-08-28T02:52:37.980Z,85.60
2018-08-28T02:53:41.355Z,85.50
2018-08-28T02:54:44.865Z,85.50
2018-08-28T02:55:49.428Z,85.50
2018-08-28T02:56:52.857Z,85.60
2018-08-28T02:57:56.241Z,85.60
2018-08-28T02:58:59.612Z,85.60
2018-08-28T03:00:03.194Z,85.60
2018-08-28T03:01:08.170Z,85.70
2018-08-28T03:02:11.577Z,85.80
2018-08-28T03:03:14.961Z,85.80
2018-08-28T03:04:18.349Z,86.00
2018-08-28T03:05:22.822Z,86.10
2018-08-28T03:06:28.348Z,86.10
2018-08-28T03:07:31.736Z,86.20
2018-08-28T03:08:35.116Z,86.20
2018-08-28T03:09:38.493Z,86.30
2018-08-28T03:10:43.913Z,86.40
2018-08-28T03:11:47.363Z,86.40
2018-08-28T03:12:50.757Z,86.40
2018-08-28T03:13:54.144Z,85.90
2018-08-28T03:14:57.529Z,86.60
2018-08-28T03:16:01.919Z,86.60
2018-08-28T03:17:05.332Z,86.70
2018-08-28T03:18:08.719Z,87.30
2018-08-28T03:19:12.113Z,86.70
2018-08-28T03:20:16.515Z,86.70
2018-08-28T03:21:21.183Z,86.80
2018-08-28T03:22:24.617Z,86.80
2018-08-28T03:23:27.997Z,86.90
2018-08-28T03:24:31.384Z,86.90
2018-08-28T03:25:35.898Z,86.90
2018-08-28T03:26:39.295Z,87.00
2018-08-28T03:27:42.704Z,87.10
2018-08-28T03:28:46.086Z,87.10
2018-08-28T03:29:49.464Z,87.20
2018-08-28T03:30:53.996Z,87.20
2018-08-28T03:31:57.408Z,87.30
2018-08-28T03:33:00.824Z,87.40
2018-08-28T03:34:04.200Z,87.50
2018-08-28T03:35:08.515Z,87.50
2018-08-28T03:36:13.769Z,87.60
2018-08-28T03:37:17.201Z,87.60
2018-08-28T03:38:20.616Z,87.60
2018-08-28T03:39:23.992Z,87.60
2018-08-28T03:40:28.745Z,87.60
2018-08-28T03:41:32.387Z,88.10
2018-08-28T03:42:35.769Z,87.70
2018-08-28T03:43:39.167Z,87.70
2018-08-28T03:44:42.626Z,87.80
2018-08-28T03:45:47.199Z,87.70
2018-08-28T03:46:50.623Z,88.50
2018-08-28T03:47:54.034Z,87.90
2018-08-28T03:48:57.436Z,88.50
2018-08-28T03:50:00.816Z,87.90
2018-08-28T03:51:05.207Z,87.90
2018-08-28T03:52:08.625Z,87.90
2018-08-28T03:53:12.017Z,88.00
2018-08-28T03:54:15.418Z,88.00
2018-08-28T03:55:19.849Z,88.00
2018-08-28T03:56:24.130Z,88.10
2018-08-28T03:57:27.552Z,88.10
2018-08-28T03:58:30.973Z,88.10
2018-08-28T03:59:34.372Z,88.10
2018-08-28T04:00:39.110Z,88.20
2018-08-28T04:01:42.517Z,88.30
2018-08-28T04:02:45.897Z,88.40
2018-08-28T04:03:49.386Z,88.40
2018-08-28T04:04:52.809Z,88.40
2018-08-28T04:05:57.285Z,88.50
2018-08-28T04:07:00.735Z,88.50
2018-08-28T04:08:04.459Z,88.50
2018-08-28T04:09:08.796Z,88.60
2018-08-28T04:10:13.199Z,88.60
2018-08-28T04:11:17.645Z,88.60
2018-08-28T04:12:21.087Z,88.70
2018-08-28T04:13:24.475Z,88.80
2018-08-28T04:14:27.987Z,88.80
2018-08-28T04:15:32.559Z,88.80
2018-08-28T04:16:35.954Z,88.80
2018-08-28T04:17:43.863Z,88.80
2018-08-28T04:18:47.241Z,88.80
2018-08-28T04:19:50.628Z,88.80
2018-08-28T04:20:56.199Z,88.80
2018-08-28T04:21:59.619Z,88.80
2018-08-28T04:23:03.000Z,88.80
2018-08-28T04:24:06.419Z,88.80
2018-08-28T04:25:11.548Z,88.90
2018-08-28T04:26:15.990Z,88.70
2018-08-28T04:27:19.399Z,88.80
2018-08-28T04:28:22.783Z,88.90
2018-08-28T04:29:26.172Z,89.00
2018-08-28T04:30:30.910Z,89.10
2018-08-28T04:31:34.481Z,89.10
2018-08-28T04:32:37.864Z,89.00
2018-08-28T04:33:41.256Z,89.20
2018-08-28T04:34:44.644Z,89.20
2018-08-28T04:35:49.086Z,89.20
2018-08-28T04:36:52.524Z,89.20
2018-08-28T04:37:55.944Z,89.10
2018-08-28T04:38:59.380Z,89.30
2018-08-28T04:40:02.808Z,89.30
2018-08-28T04:41:07.475Z,89.30
2018-08-28T04:42:10.900Z,89.40
2018-08-28T04:43:14.289Z,89.10
2018-08-28T04:44:17.839Z,89.50
2018-08-28T04:45:23.175Z,89.60
2018-08-28T04:46:28.579Z,89.50
2018-08-28T04:47:31.960Z,89.70
2018-08-28T04:48:35.362Z,89.60
2018-08-28T04:49:38.752Z,89.70
2018-08-28T04:50:45.084Z,89.80
2018-08-28T04:51:48.552Z,89.90
2018-08-28T04:52:51.941Z,90.00
2018-08-28T04:53:55.311Z,90.00
2018-08-28T04:54:58.736Z,90.00
2018-08-28T04:56:03.137Z,90.30
2018-08-28T04:57:06.588Z,90.00
2018-08-28T04:58:09.975Z,90.00
2018-08-28T04:59:13.356Z,90.30
2018-08-28T05:00:17.950Z,90.30
2018-08-28T05:01:22.444Z,90.00
2018-08-28T05:02:29.408Z,90.00
2018-08-28T05:03:32.796Z,90.00
2018-08-28T05:04:36.183Z,90.00
2018-08-28T05:05:41.268Z,90.10
2018-08-28T05:06:44.680Z,90.10
2018-08-28T05:07:48.140Z,90.10
2018-08-28T05:08:51.565Z,90.10
2018-08-28T05:09:54.956Z,90.10
2018-08-28T05:11:00.983Z,90.00
2018-08-28T05:12:04.384Z,90.10
2018-08-28T05:13:07.792Z,90.10
2018-08-28T05:14:11.176Z,90.20
2018-08-28T05:15:15.139Z,90.20
2018-08-28T05:16:18.931Z,90.20
2018-08-28T05:17:22.565Z,90.30
2018-08-28T05:18:25.963Z,90.30
2018-08-28T05:19:29.462Z,90.40
2018-08-28T05:20:33.878Z,90.40
2018-08-28T05:21:37.359Z,90.50
2018-08-28T05:22:40.745Z,90.50
2018-08-28T05:23:44.148Z,90.50
2018-08-28T05:24:47.533Z,90.60
2018-08-28T05:25:52.024Z,90.60
2018-08-28T05:26:55.448Z,91.00
2018-08-28T05:27:58.916Z,90.70
2018-08-28T05:29:02.330Z,90.80
2018-08-28T05:30:07.257Z,90.80
2018-08-28T05:31:11.771Z,90.80
2018-08-28T05:32:15.191Z,90.80
2018-08-28T05:33:18.585Z,90.80
2018-08-28T05:34:21.980Z,90.80
2018-08-28T05:35:26.395Z,90.80
2018-08-28T05:36:30.284Z,90.80
2018-08-28T05:37:33.687Z,90.90
2018-08-28T05:38:37.092Z,90.90
2018-08-28T05:39:40.528Z,90.90
2018-08-28T05:40:44.900Z,90.90
2018-08-28T05:41:48.303Z,90.90
2018-08-28T05:42:51.687Z,90.90
2018-08-28T05:43:55.076Z,90.90
2018-08-28T05:44:58.489Z,90.90
2018-08-28T05:46:02.902Z,90.90
2018-08-28T05:47:06.376Z,91.00
2018-08-28T05:48:09.925Z,91.00
2018-08-28T05:49:13.362Z,91.00
2018-08-28T05:50:17.843Z,91.00
2018-08-28T05:51:23.126Z,91.00
2018-08-28T05:52:26.530Z,91.00
2018-08-28T05:53:29.916Z,91.00
2018-08-28T05:54:33.336Z,91.10
2018-08-28T05:55:37.839Z,91.10
2018-08-28T05:56:41.240Z,91.10
2018-08-28T05:57:44.640Z,91.10
2018-08-28T05:58:48.057Z,91.10
2018-08-28T05:59:51.436Z,91.10
2018-08-28T06:00:55.948Z,91.10
2018-08-28T06:01:59.408Z,91.10
2018-08-28T06:03:03.286Z,91.10
2018-08-28T06:04:06.641Z,91.10
2018-08-28T06:05:11.253Z,91.10
2018-08-28T06:06:15.827Z,91.10
2018-08-28T06:07:19.345Z,91.10
2018-08-28T06:08:22.792Z,91.10
2018-08-28T06:09:26.184Z,91.10
2018-08-28T06:10:30.584Z,91.10
2018-08-28T06:11:34.070Z,91.10
2018-08-28T06:12:37.487Z,91.20
2018-08-28T06:13:40.920Z,91.20
2018-08-28T06:14:44.334Z,91.20
2018-08-28T06:15:48.819Z,91.20
2018-08-28T06:16:52.312Z,91.30
2018-08-28T06:17:55.743Z,91.30
2018-08-28T06:18:59.224Z,91.30
2018-08-28T06:20:02.766Z,91.30
2018-08-28T06:21:07.382Z,91.30
2018-08-28T06:22:11.137Z,91.30
2018-08-28T06:23:14.654Z,91.30
2018-08-28T06:24:18.055Z,91.30
2018-08-28T06:25:23.649Z,91.30
2018-08-28T06:26:28.204Z,91.30
2018-08-28T06:27:31.655Z,91.30
2018-08-28T06:28:35.044Z,91.20
2018-08-28T06:29:38.801Z,91.20
2018-08-28T06:30:43.283Z,91.30
2018-08-28T06:31:46.728Z,91.20
2018-08-28T06:32:50.179Z,91.20
2018-08-28T06:33:53.731Z,91.20
2018-08-28T06:34:57.089Z,91.20
2018-08-28T06:36:01.638Z,91.20
2018-08-28T06:37:05.111Z,91.20
2018-08-28T06:38:08.561Z,91.20
2018-08-28T06:39:11.960Z,91.20
2018-08-28T06:40:16.429Z,91.10
2018-08-28T06:41:20.455Z,91.20
2018-08-28T06:42:24.532Z,91.10
2018-08-28T06:43:27.995Z,91.10
2018-08-28T06:44:31.356Z,91.10
2018-08-28T06:45:37.173Z,91.10
2018-08-28T06:46:40.600Z,91.10
2018-08-28T06:47:43.976Z,91.00
2018-08-28T06:48:47.395Z,91.00
2018-08-28T06:49:50.808Z,91.00
2018-08-28T06:50:56.319Z,90.90
2018-08-28T06:51:59.730Z,90.90
2018-08-28T06:53:03.117Z,90.80
2018-08-28T06:54:06.545Z,90.90
2018-08-28T06:55:10.989Z,90.80
2018-08-28T06:56:16.043Z,90.80
2018-08-28T06:57:19.475Z,90.80
2018-08-28T06:58:22.860Z,90.70
2018-08-28T06:59:26.259Z,90.70
2018-08-28T07:00:30.694Z,90.60
2018-08-28T07:01:34.104Z,90.60
2018-08-28T07:02:37.797Z,90.60
2018-08-28T07:03:41.216Z,90.60
2018-08-28T07:04:44.652Z,90.60
2018-08-28T07:05:49.270Z,90.60
2018-08-28T07:06:52.673Z,90.50
2018-08-28T07:07:56.068Z,90.50
2018-08-28T07:08:59.464Z,90.50
2018-08-28T07:10:03.633Z,90.40
2018-08-28T07:11:08.182Z,90.40
2018-08-28T07:12:11.661Z,90.60
2018-08-28T07:13:15.060Z,90.30
2018-08-28T07:14:18.464Z,90.50
2018-08-28T07:15:22.899Z,90.10
2018-08-28T07:16:27.357Z,90.10
2018-08-28T07:17:30.769Z,90.10
2018-08-28T07:18:34.189Z,90.10
2018-08-28T07:19:37.600Z,90.10
2018-08-28T07:20:42.987Z,90.10
2018-08-28T07:21:46.408Z,90.00
2018-08-28T07:22:49.784Z,90.00
2018-08-28T07:23:53.165Z,90.00
2018-08-28T07:24:56.985Z,89.90
2018-08-28T07:26:01.656Z,89.80
2018-08-28T07:27:05.064Z,89.80
2018-08-28T07:28:08.513Z,89.90
2018-08-28T07:29:11.895Z,89.80
2018-08-28T07:30:16.004Z,89.70
2018-08-28T07:31:20.589Z,89.70
2018-08-28T07:32:23.991Z,89.90
2018-08-28T07:33:27.367Z,90.00
2018-08-28T07:34:30.752Z,90.10
2018-08-28T07:35:35.177Z,89.90
2018-08-28T07:36:38.604Z,89.90
2018-08-28T07:37:42.015Z,89.90
2018-08-28T07:38:45.412Z,90.00
2018-08-28T07:39:48.844Z,89.90
2018-08-28T07:40:53.789Z,89.70
2018-08-28T07:41:58.462Z,89.50
2018-08-28T07:43:01.878Z,89.50
2018-08-28T07:44:05.257Z,89.40
2018-08-28T07:45:09.750Z,89.30
2018-08-28T07:46:14.213Z,89.30
2018-08-28T07:47:17.632Z,89.10
2018-08-28T07:48:21.062Z,88.90
2018-08-28T07:49:24.420Z,88.70
2018-08-28T07:50:29.322Z,88.60
2018-08-28T07:51:32.768Z,88.70
2018-08-28T07:52:36.148Z,88.60
2018-08-28T07:53:39.682Z,88.40
2018-08-28T07:54:43.260Z,88.20
2018-08-28T07:55:48.268Z,88.10
2018-08-28T07:56:51.760Z,88.00
2018-08-28T07:57:55.145Z,87.90
2018-08-28T07:58:58.548Z,87.80
2018-08-28T08:00:02.019Z,87.80
2018-08-28T08:01:06.773Z,87.80
2018-08-28T08:02:10.213Z,87.70
2018-08-28T08:03:13.612Z,87.60
2018-08-28T08:04:16.983Z,87.40
2018-08-28T08:05:21.592Z,87.30
2018-08-28T08:06:26.437Z,87.10
2018-08-28T08:07:29.873Z,87.10
2018-08-28T08:08:33.347Z,87.10
2018-08-28T08:09:36.745Z,87.10
2018-08-28T08:10:41.294Z,87.30
2018-08-28T08:11:44.725Z,86.80
2018-08-28T08:12:48.416Z,86.70
2018-08-28T08:13:51.805Z,86.70
2018-08-28T08:14:55.192Z,86.60
2018-08-28T08:15:59.778Z,86.50
2018-08-28T08:17:03.220Z,86.50
2018-08-28T08:18:06.623Z,86.60
2018-08-28T08:19:10.033Z,86.50
2018-08-28T08:20:14.358Z,86.50
2018-08-28T08:21:19.660Z,86.40
2018-08-28T08:22:23.090Z,86.20
2018-08-28T08:23:26.549Z,86.00
2018-08-28T08:24:29.927Z,85.80
2018-08-28T08:25:34.288Z,85.70
2018-08-28T08:26:37.710Z,85.40
2018-08-28T08:27:41.148Z,84.90
2018-08-28T08:28:44.623Z,84.60
2018-08-28T08:29:48.040Z,84.60
2018-08-28T08:30:52.450Z,84.40
2018-08-28T08:31:55.889Z,84.00
2018-08-28T08:32:59.313Z,83.80
2018-08-28T08:34:02.726Z,83.70
2018-08-28T08:35:07.297Z,83.40
2018-08-28T08:36:12.306Z,83.20
2018-08-28T08:37:15.736Z,82.80
2018-08-28T08:38:19.255Z,82.30
2018-08-28T08:39:22.684Z,81.90
2018-08-28T08:40:27.118Z,81.40
2018-08-28T08:41:30.611Z,81.80
2018-08-28T08:42:34.015Z,80.90
2018-08-28T08:43:37.392Z,80.70
2018-08-28T08:44:40.823Z,80.60
2018-08-28T08:45:45.856Z,80.40
2018-08-28T08:46:49.308Z,80.40
2018-08-28T08:47:52.735Z,80.30
2018-08-28T08:48:56.144Z,79.40
2018-08-28T08:49:59.581Z,78.80
2018-08-28T08:51:04.451Z,78.50
2018-08-28T08:52:07.876Z,78.30
2018-08-28T08:53:11.323Z,78.00
2018-08-28T08:54:14.696Z,77.60
2018-08-28T08:55:19.306Z,77.30
2018-08-28T08:56:23.577Z,77.20
2018-08-28T08:57:27.041Z,77.00
2018-08-28T08:58:30.410Z,77.00
2018-08-28T08:59:33.862Z,77.00
2018-08-28T09:00:38.501Z,77.00
2018-08-28T09:01:41.917Z,76.90
2018-08-28T09:02:45.376Z,76.80
2018-08-28T09:03:48.760Z,76.70
2018-08-28T09:04:52.148Z,76.60
2018-08-28T09:05:56.881Z,76.40
2018-08-28T09:07:00.324Z,76.30
2018-08-28T09:08:03.700Z,76.00
2018-08-28T09:09:07.200Z,75.80
2018-08-28T09:10:11.736Z,75.50
2018-08-28T09:11:16.887Z,74.60
2018-08-28T09:12:20.391Z,73.30
2018-08-28T09:13:23.831Z,72.90
2018-08-28T09:14:27.172Z,72.30
2018-08-28T09:15:32.041Z,71.60
2018-08-28T09:16:35.497Z,71.00
2018-08-28T09:17:38.876Z,70.60
2018-08-28T09:18:42.260Z,69.70
2018-08-28T09:19:45.693Z,69.00
2018-08-28T09:20:50.255Z,68.70
2018-08-28T09:21:53.696Z,69.30
2018-08-28T09:22:57.161Z,68.40
2018-08-28T09:24:00.568Z,67.30
2018-08-28T09:25:04.295Z,66.60
2018-08-28T09:26:09.110Z,65.80
2018-08-28T09:27:12.533Z,65.50
2018-08-28T09:28:15.916Z,65.80
2018-08-28T09:29:19.309Z,66.10
2018-08-28T09:30:23.902Z,65.90
2018-08-28T09:31:27.381Z,65.80
2018-08-28T09:32:30.741Z,65.90
2018-08-28T09:33:34.169Z,65.90
2018-08-28T09:34:37.562Z,66.70
2018-08-28T09:35:42.422Z,66.00
2018-08-28T09:36:45.829Z,66.00
2018-08-28T09:37:49.404Z,66.10
2018-08-28T09:38:52.930Z,66.10
2018-08-28T09:39:56.211Z,66.10
2018-08-28T09:41:00.612Z,66.10
2018-08-28T09:42:04.032Z,66.30
2018-08-28T09:43:07.520Z,66.70
2018-08-28T09:44:10.912Z,67.50
2018-08-28T09:45:15.419Z,68.10
2018-08-28T09:46:20.052Z,68.50
2018-08-28T09:47:23.446Z,69.00
2018-08-28T09:48:26.924Z,69.60
2018-08-28T09:49:30.268Z,68.20
2018-08-28T09:50:34.680Z,67.70
2018-08-28T09:51:38.117Z,67.30
2018-08-28T09:52:41.516Z,66.50
2018-08-28T09:53:44.977Z,66.50
2018-08-28T09:54:48.391Z,65.80
2018-08-28T09:55:52.872Z,65.80
2018-08-28T09:56:56.448Z,65.90
2018-08-28T09:57:59.880Z,66.10
2018-08-28T09:59:03.286Z,66.20
2018-08-28T10:00:08.823Z,66.60
2018-08-28T10:01:18.282Z,66.60
2018-08-28T10:02:21.885Z,66.80
2018-08-28T10:03:25.376Z,66.90
2018-08-28T10:04:28.776Z,67.00
2018-08-28T10:05:33.382Z,67.10
2018-08-28T10:06:36.781Z,67.20
2018-08-28T10:07:40.195Z,67.20
2018-08-28T10:08:43.589Z,67.90
2018-08-28T10:09:47.000Z,67.20
2018-08-28T10:10:51.416Z,67.10
2018-08-28T10:11:54.852Z,67.00
2018-08-28T10:12:58.279Z,66.50
2018-08-28T10:14:01.670Z,66.20
2018-08-28T10:15:06.427Z,66.00
2018-08-28T10:16:10.775Z,65.70
2018-08-28T10:17:14.207Z,65.20
2018-08-28T10:18:17.583Z,65.00
2018-08-28T10:19:20.973Z,64.90
2018-08-28T10:20:25.537Z,64.80
2018-08-28T10:21:29.709Z,64.80
2018-08-28T10:22:33.133Z,64.70
2018-08-28T10:23:36.663Z,64.60
2018-08-28T10:24:40.071Z,64.40
2018-08-28T10:25:44.474Z,64.20
2018-08-28T10:26:47.920Z,64.20
2018-08-28T10:27:51.295Z,64.00
2018-08-28T10:28:54.709Z,63.80
2018-08-28T10:29:58.184Z,63.30
2018-08-28T10:31:03.835Z,63.20
2018-08-28T10:32:07.233Z,63.10
2018-08-28T10:33:10.620Z,63.10
2018-08-28T10:34:13.999Z,63.00
2018-08-28T10:35:18.283Z,62.80
2018-08-28T10:36:22.595Z,62.80
2018-08-28T10:37:25.995Z,62.80
2018-08-28T10:38:29.390Z,62.60
2018-08-28T10:39:32.833Z,62.40
2018-08-28T10:40:37.403Z,62.10
2018-08-28T10:41:40.829Z,62.00
2018-08-28T10:42:44.324Z,61.80
2018-08-28T10:43:47.846Z,61.70
2018-08-28T10:44:51.283Z,61.70
2018-08-28T10:45:56.066Z,61.60
2018-08-28T10:46:59.601Z,61.70
2018-08-28T10:48:03.004Z,61.70
2018-08-28T10:49:06.400Z,61.80
2018-08-28T10:50:10.902Z,61.80
2018-08-28T10:51:16.505Z,61.80
2018-08-28T10:52:20.041Z,61.80
2018-08-28T10:53:23.447Z,61.40
2018-08-28T10:54:26.832Z,61.40
2018-08-28T10:55:31.952Z,61.50
2018-08-28T10:56:35.385Z,61.30
2018-08-28T10:57:39.062Z,61.00
2018-08-28T10:58:42.468Z,60.90
2018-08-28T10:59:45.823Z,60.90
2018-08-28T11:00:50.246Z,60.40
2018-08-28T11:01:53.729Z,59.90
2018-08-28T11:02:57.147Z,59.90
2018-08-28T11:04:00.537Z,59.90
2018-08-28T11:05:04.341Z,60.00
2018-08-28T11:06:08.853Z,60.00
2018-08-28T11:07:12.285Z,60.00
2018-08-28T11:08:15.735Z,60.60
2018-08-28T11:09:19.123Z,60.00
2018-08-28T11:10:23.685Z,60.00
2018-08-28T11:11:28.162Z,59.90
2018-08-28T11:12:31.568Z,59.70
2018-08-28T11:13:34.996Z,59.70
2018-08-28T11:14:38.395Z,59.70
2018-08-28T11:15:42.963Z,59.50
2018-08-28T11:16:46.359Z,59.30
2018-08-28T11:17:49.739Z,58.90
2018-08-28T11:18:53.152Z,59.20
2018-08-28T11:19:57.248Z,58.60
2018-08-28T11:21:02.163Z,58.40
2018-08-28T11:22:05.562Z,58.30
2018-08-28T11:23:08.935Z,58.20
2018-08-28T11:24:12.350Z,58.20
2018-08-28T11:25:16.794Z,58.30
2018-08-28T11:26:21.164Z,58.30
2018-08-28T11:27:24.581Z,58.20
2018-08-28T11:28:27.977Z,58.10
2018-08-28T11:29:31.444Z,57.70
2018-08-28T11:30:35.798Z,57.80
2018-08-28T11:31:39.205Z,57.60
2018-08-28T11:32:42.753Z,57.30
2018-08-28T11:33:46.214Z,56.80
2018-08-28T11:34:49.624Z,56.80
2018-08-28T11:35:53.970Z,56.90
2018-08-28T11:36:57.516Z,57.00
2018-08-28T11:38:00.991Z,56.90
2018-08-28T11:39:04.766Z,57.00
2018-08-28T11:40:09.774Z,57.10
2018-08-28T11:41:14.868Z,56.80
2018-08-28T11:42:18.296Z,56.80
2018-08-28T11:43:21.693Z,56.70
2018-08-28T11:44:25.090Z,56.70
2018-08-28T11:45:29.722Z,56.80
2018-08-28T11:46:33.345Z,56.90
2018-08-28T11:47:36.740Z,57.00
2018-08-28T11:48:40.159Z,57.20
2018-08-28T11:49:43.543Z,57.30
2018-08-28T11:50:49.089Z,57.30
2018-08-28T11:51:52.596Z,57.30
2018-08-28T11:52:55.993Z,57.20
2018-08-28T11:53:59.580Z,57.20
2018-08-28T11:55:03.323Z,57.80
2018-08-28T11:56:07.960Z,57.20
2018-08-28T11:57:11.371Z,57.20
2018-08-28T11:58:14.757Z,56.90
2018-08-28T11:59:18.144Z,56.80
2018-08-28T12:00:22.781Z,56.60
2018-08-28T12:01:26.263Z,56.50
2018-08-28T12:02:29.744Z,56.30
2018-08-28T12:03:33.135Z,56.20
2018-08-28T12:04:36.652Z,56.10
2018-08-28T12:05:41.375Z,56.20
2018-08-28T12:06:44.871Z,56.20
2018-08-28T12:07:48.309Z,56.00
2018-08-28T12:08:51.644Z,56.10
2018-08-28T12:09:55.049Z,56.20
2018-08-28T12:10:59.537Z,56.30
2018-08-28T12:12:02.989Z,56.60
2018-08-28T12:13:06.487Z,56.70
2018-08-28T12:14:09.939Z,56.60
2018-08-28T12:15:14.857Z,56.70
2018-08-28T12:16:19.208Z,56.50
2018-08-28T12:17:22.648Z,56.30
2018-08-28T12:18:26.036Z,56.20
2018-08-28T12:19:29.466Z,56.10
2018-08-28T12:20:34.856Z,56.10
2018-08-28T12:21:38.240Z,56.10
2018-08-28T12:22:41.640Z,56.00
2018-08-28T12:23:45.044Z,56.00
2018-08-28T12:24:48.425Z,55.90
2018-08-28T12:25:52.918Z,55.90
2018-08-28T12:26:56.448Z,56.00
2018-08-28T12:27:59.872Z,56.10
2018-08-28T12:29:03.268Z,55.90
2018-08-28T12:30:07.718Z,55.70
2018-08-28T12:31:12.059Z,55.70
2018-08-28T12:32:15.469Z,55.80
2018-08-28T12:33:18.928Z,55.90
2018-08-28T12:34:22.307Z,55.90
2018-08-28T12:35:26.894Z,56.00
2018-08-28T12:36:30.647Z,56.10
2018-08-28T12:37:34.032Z,56.10
2018-08-28T12:38:37.477Z,56.10
2018-08-28T12:39:40.860Z,56.10
2018-08-28T12:40:45.275Z,56.20
2018-08-28T12:41:48.685Z,56.10
2018-08-28T12:42:52.068Z,56.10
2018-08-28T12:43:55.487Z,56.00
2018-08-28T12:44:58.867Z,56.00
2018-08-28T12:46:03.471Z,56.10
2018-08-28T12:47:06.882Z,55.90
2018-08-28T12:48:10.273Z,55.70
2018-08-28T12:49:13.700Z,55.70
2018-08-28T12:50:18.088Z,55.60
2018-08-28T12:51:22.553Z,55.40
2018-08-28T12:52:25.892Z,54.90
2018-08-28T12:53:29.313Z,54.60
2018-08-28T12:54:32.717Z,54.60
2018-08-28T12:55:37.203Z,54.60
2018-08-28T12:56:40.627Z,54.50
2018-08-28T12:57:44.013Z,54.60
2018-08-28T12:58:47.468Z,54.60
2018-08-28T12:59:50.882Z,54.60
2018-08-28T13:00:55.378Z,54.70
2018-08-28T13:01:58.800Z,54.60
2018-08-28T13:03:02.227Z,54.80
2018-08-28T13:04:05.827Z,54.80
2018-08-28T13:05:11.349Z,54.90
2018-08-28T13:06:15.814Z,54.70
2018-08-28T13:07:19.282Z,54.60
2018-08-28T13:08:23.007Z,54.40
2018-08-28T13:09:26.393Z,54.10
2018-08-28T13:10:30.790Z,53.90
2018-08-28T13:11:34.244Z,53.80
2018-08-28T13:12:44.028Z,53.50
2018-08-28T13:13:47.488Z,54.00
2018-08-28T13:14:50.988Z,53.60
2018-08-28T13:15:55.379Z,53.30
2018-08-28T13:16:58.784Z,53.20
2018-08-28T13:18:02.168Z,53.10
2018-08-28T13:19:05.699Z,53.30
2018-08-28T13:20:10.200Z,53.30
2018-08-28T13:21:15.591Z,53.40
2018-08-28T13:22:19.020Z,53.30
2018-08-28T13:23:22.492Z,53.10
2018-08-28T13:24:25.892Z,53.10
2018-08-28T13:25:30.635Z,53.00
2018-08-28T13:26:34.017Z,52.90
2018-08-28T13:27:37.527Z,52.50
2018-08-28T13:28:40.908Z,52.40
2018-08-28T13:29:44.288Z,52.40
2018-08-28T13:30:48.788Z,52.40
2018-08-28T13:31:52.208Z,52.30
2018-08-28T13:32:55.600Z,52.10
2018-08-28T13:33:58.976Z,52.20
2018-08-28T13:35:02.369Z,52.20
2018-08-28T13:36:07.490Z,51.90
2018-08-28T13:37:11.084Z,51.80
2018-08-28T13:38:14.516Z,51.50
2018-08-28T13:39:17.924Z,51.10
2018-08-28T13:40:22.319Z,51.10
2018-08-28T13:41:26.824Z,51.10